createdAt,value
2018-03-25T00:00:53.228Z,98.45
2018-03-25T00:02:02.065Z,98.17
2018-03-25T00:03:11.472Z,98.74
2018-03-25T00:04:20.306Z,98.55
2018-03-25T00:05:29.140Z,98.36
2018-03-25T00:06:37.973Z,98.45
2018-03-25T00:07:47.079Z,98.45
2018-03-25T00:08:56.211Z,98.45
2018-03-25T00:10:05.041Z,98.64
2018-03-25T00:11:13.873Z,99.02
2018-03-25T00:12:22.990Z,98.36
2018-03-25T00:13:31.821Z,98.83
2018-03-25T00:14:40.756Z,98.74
2018-03-25T00:15:49.587Z,98.93
2018-03-25T00:16:58.419Z,98.64
2018-03-25T00:18:07.252Z,99.21
2018-03-25T00:19:16.081Z,98.83
2018-03-25T00:20:24.913Z,98.83
2018-03-25T00:21:33.748Z,98.55
2018-03-25T00:22:42.580Z,98.64
2018-03-25T00:23:51.415Z,99.59
2018-03-25T00:25:00.243Z,99.5
2018-03-25T00:26:09.326Z,98.83
2018-03-25T00:27:18.157Z,99.02
2018-03-25T00:28:26.987Z,99.5
2018-03-25T00:29:35.818Z,99.5
2018-03-25T00:30:44.652Z,99.5
2018-03-25T00:31:53.489Z,98.55
2018-03-25T00:33:02.598Z,99.59
2018-03-25T00:34:11.429Z,99.21
2018-03-25T00:35:20.261Z,99.3
2018-03-25T00:36:29.093Z,99.4
2018-03-25T00:37:38.183Z,99.5
2018-03-25T00:38:47.010Z,99.3
2018-03-25T00:39:56.136Z,99.4
2018-03-25T00:41:04.969Z,99.02
2018-03-25T00:42:13.800Z,99.59
2018-03-25T00:43:22.783Z,99.4
2018-03-25T00:44:31.614Z,99.21
2018-03-25T00:45:40.726Z,99.69
2018-03-25T00:46:49.557Z,99.5
2018-03-25T00:47:58.390Z,99.69
2018-03-25T00:49:07.277Z,99.11
2018-03-25T00:50:16.109Z,99.11
2018-03-25T00:51:25.218Z,99.5
2018-03-25T00:52:34.050Z,99.3
2018-03-25T00:53:42.883Z,99.4
2018-03-25T00:54:51.714Z,99.07
2018-03-25T00:56:00.547Z,99.35
2018-03-25T00:57:09.379Z,99.35
2018-03-25T00:58:18.488Z,99.35
2018-03-25T00:59:27.320Z,99.83
2018-03-25T01:00:36.303Z,99.54
2018-03-25T01:01:45.132Z,99.26
2018-03-25T01:02:53.970Z,99.35
2018-03-25T01:04:02.795Z,99.54
2018-03-25T01:05:11.626Z,99.35
2018-03-25T01:06:20.458Z,99.44
2018-03-25T01:07:29.293Z,99.54
2018-03-25T01:08:38.122Z,99.54
2018-03-25T01:09:47.231Z,99.64
2018-03-25T01:10:56.064Z,99.99
2018-03-25T01:12:04.896Z,99.35
2018-03-25T01:13:13.729Z,99.35
2018-03-25T01:14:22.561Z,99.54
2018-03-25T01:15:31.393Z,99.54
2018-03-25T01:16:40.226Z,99.44
2018-03-25T01:17:49.357Z,99.44
2018-03-25T01:18:58.191Z,99.26
2018-03-25T01:20:07.024Z,98.88
2018-03-25T01:21:15.853Z,99.83
2018-03-25T01:22:24.687Z,99.16
2018-03-25T01:23:33.571Z,99.26
2018-03-25T01:24:42.403Z,98.97
2018-03-25T01:25:51.238Z,99.26
2018-03-25T01:27:00.342Z,98.97
2018-03-25T01:28:09.246Z,99.26
2018-03-25T01:29:18.453Z,99.07
2018-03-25T01:30:27.286Z,99.07
2018-03-25T01:31:36.120Z,99.07
2018-03-25T01:32:44.954Z,99.07
2018-03-25T01:33:53.784Z,98.97
2018-03-25T01:35:02.618Z,98.69
2018-03-25T01:36:11.452Z,99.26
2018-03-25T01:37:20.295Z,99.07
2018-03-25T01:38:29.403Z,98.4
2018-03-25T01:39:38.238Z,98.97
2018-03-25T01:40:47.070Z,98.79
2018-03-25T01:41:55.901Z,98.97
2018-03-25T01:43:04.734Z,98.31
2018-03-25T01:44:13.564Z,98.69
2018-03-25T01:45:22.394Z,98.88
2018-03-25T01:46:31.225Z,98.21
2018-03-25T01:47:40.337Z,98.21
2018-03-25T01:48:49.167Z,98.4
2018-03-25T01:49:57.998Z,98.4
2018-03-25T01:51:06.841Z,97.83
2018-03-25T01:52:15.820Z,98.02
2018-03-25T01:53:24.655Z,98.02
2018-03-25T01:54:33.496Z,97.83
2018-03-25T01:55:42.605Z,98.12
2018-03-25T01:56:51.438Z,98.12
2018-03-25T01:58:00.272Z,97.83
2018-03-25T01:59:09.102Z,98.21
2018-03-25T02:00:17.930Z,98.21
2018-03-25T02:01:26.760Z,98.02
2018-03-25T02:02:35.594Z,98.21
2018-03-25T02:03:44.578Z,97.74
2018-03-25T02:04:53.412Z,97.55
2018-03-25T02:06:02.520Z,97.55
2018-03-25T02:07:11.639Z,97.64
2018-03-25T02:08:20.739Z,97.55
2018-03-25T02:09:30.144Z,97.45
2018-03-25T02:10:38.974Z,97.64
2018-03-25T02:11:47.807Z,97.36
2018-03-25T02:12:56.640Z,97.45
2018-03-25T02:14:05.470Z,97.12
2018-03-25T02:15:14.302Z,97.12
2018-03-25T02:16:23.133Z,97.12
2018-03-25T02:17:31.968Z,96.98
2018-03-25T02:18:41.131Z,96.41
2018-03-25T02:19:49.965Z,96.98
2018-03-25T02:20:58.797Z,96.41
2018-03-25T02:22:07.629Z,97.17
2018-03-25T02:23:16.460Z,97.27
2018-03-25T02:24:25.299Z,96.79
2018-03-25T02:25:34.404Z,96.41
2018-03-25T02:26:43.283Z,96.5
2018-03-25T02:27:52.445Z,96.12
2018-03-25T02:29:01.236Z,96.5
2018-03-25T02:30:10.067Z,96.22
2018-03-25T02:31:18.902Z,96.22
2018-03-25T02:32:27.734Z,96.6
2018-03-25T02:33:36.846Z,96.5
2018-03-25T02:34:45.682Z,96.5
2018-03-25T02:35:54.513Z,95.7
2018-03-25T02:37:03.358Z,95.94
2018-03-25T02:38:12.604Z,96.03
2018-03-25T02:39:21.493Z,95.51
2018-03-25T02:40:30.272Z,95.6
2018-03-25T02:41:39.109Z,95.31
2018-03-25T02:42:47.940Z,95.6
2018-03-25T02:43:56.775Z,95.41
2018-03-25T02:45:05.606Z,95.41
2018-03-25T02:46:14.439Z,94.93
2018-03-25T02:47:23.273Z,95.22
2018-03-25T02:48:32.106Z,95.12
2018-03-25T02:49:41.087Z,94.56
2018-03-25T02:50:49.919Z,94.56
2018-03-25T02:51:59.034Z,94.56
2018-03-25T02:53:07.869Z,94.74
2018-03-25T02:54:16.974Z,94.74
2018-03-25T02:55:25.966Z,94.84
2018-03-25T02:56:35.360Z,94.56
2018-03-25T02:57:44.192Z,93.8
2018-03-25T02:58:53.310Z,94.27
2018-03-25T03:00:02.152Z,94.56
2018-03-25T03:01:11.417Z,93.89
2018-03-25T03:02:20.250Z,93.99
2018-03-25T03:03:29.091Z,93.99
2018-03-25T03:04:37.923Z,93.89
2018-03-25T03:05:47.040Z,93.8
2018-03-25T03:06:55.877Z,94.27
2018-03-25T03:08:04.709Z,94.08
2018-03-25T03:09:13.542Z,93.99
2018-03-25T03:10:22.922Z,93.51
2018-03-25T03:11:31.754Z,93.8
2018-03-25T03:12:40.758Z,93.41
2018-03-25T03:13:50.136Z,93.51
2018-03-25T03:14:58.967Z,93.32
2018-03-25T03:16:07.800Z,93.41
2018-03-25T03:17:16.634Z,93.32
2018-03-25T03:18:25.515Z,92.85
2018-03-25T03:19:34.356Z,92.66
2018-03-25T03:20:43.184Z,92.75
2018-03-25T03:21:52.016Z,92.66
2018-03-25T03:23:00.848Z,92.09
2018-03-25T03:24:09.927Z,92.66
2018-03-25T03:25:19.035Z,92.09
2018-03-25T03:26:27.866Z,92.18
2018-03-25T03:27:36.696Z,92.09
2018-03-25T03:28:45.526Z,92.28
2018-03-25T03:29:54.361Z,91.61
2018-03-25T03:31:03.196Z,92.09
2018-03-25T03:32:12.030Z,92.09
2018-03-25T03:33:20.862Z,91.8
2018-03-25T03:34:29.696Z,91.61
2018-03-25T03:35:38.908Z,92.09
2018-03-25T03:36:47.733Z,91.99
2018-03-25T03:37:56.564Z,91.61
2018-03-25T03:39:05.398Z,91.14
2018-03-25T03:40:14.232Z,91.99
2018-03-25T03:41:23.065Z,91.89
2018-03-25T03:42:31.892Z,91.89
2018-03-25T03:43:40.720Z,91.24
2018-03-25T03:44:49.553Z,91.24
2018-03-25T03:45:58.385Z,91.8
2018-03-25T03:47:07.217Z,91.24
2018-03-25T03:48:16.050Z,91.14
2018-03-25T03:49:24.878Z,91.14
2018-03-25T03:50:33.707Z,91.04
2018-03-25T03:51:42.537Z,91.24
2018-03-25T03:52:51.668Z,91.33
2018-03-25T03:54:00.498Z,91.24
2018-03-25T03:55:09.332Z,91.04
2018-03-25T03:56:18.160Z,91.24
2018-03-25T03:57:27.268Z,91.42
2018-03-25T03:58:36.250Z,91.24
2018-03-25T03:59:45.082Z,91.24
2018-03-25T04:00:53.916Z,91.33
2018-03-25T04:02:02.752Z,91.33
2018-03-25T04:03:11.581Z,91.24
2018-03-25T04:04:20.413Z,91.42
2018-03-25T04:05:29.246Z,91.24
2018-03-25T04:06:38.076Z,91.42
2018-03-25T04:07:46.909Z,91.33
2018-03-25T04:08:55.737Z,90.95
2018-03-25T04:10:04.876Z,91.24
2018-03-25T04:11:13.701Z,91.42
2018-03-25T04:12:22.530Z,90.95
2018-03-25T04:13:31.359Z,90.95
2018-03-25T04:14:40.191Z,90.85
2018-03-25T04:15:49.124Z,91.42
2018-03-25T04:16:58.230Z,90.85
2018-03-25T04:18:07.063Z,90.95
2018-03-25T04:19:16.172Z,90.76
2018-03-25T04:20:25.001Z,90.66
2018-03-25T04:21:34.035Z,91.04
2018-03-25T04:22:42.867Z,90.95
2018-03-25T04:23:51.697Z,90.76
2018-03-25T04:25:00.527Z,90.76
2018-03-25T04:26:09.361Z,90.57
2018-03-25T04:27:18.617Z,91.14
2018-03-25T04:28:27.448Z,90.57
2018-03-25T04:29:36.284Z,90.85
2018-03-25T04:30:45.402Z,91.04
2018-03-25T04:31:54.239Z,90.95
2018-03-25T04:33:03.214Z,90.95
2018-03-25T04:34:12.322Z,91.24
2018-03-25T04:35:21.151Z,91.04
2018-03-25T04:36:29.987Z,90.95
2018-03-25T04:37:38.814Z,90.95
2018-03-25T04:38:48.022Z,91.04
2018-03-25T04:39:56.856Z,90.95
2018-03-25T04:41:05.689Z,91.04
2018-03-25T04:42:14.520Z,90.28
2018-03-25T04:43:23.351Z,90.95
2018-03-25T04:44:32.234Z,90.28
2018-03-25T04:45:41.068Z,90.85
2018-03-25T04:46:49.900Z,90.95
2018-03-25T04:47:58.730Z,90.47
2018-03-25T04:49:07.837Z,90.38
2018-03-25T04:50:16.716Z,90.95
2018-03-25T04:51:25.547Z,90.66
2018-03-25T04:52:34.933Z,89.9
2018-03-25T04:53:43.766Z,90.76
2018-03-25T04:54:52.599Z,89.9
2018-03-25T04:56:01.714Z,90.09
2018-03-25T04:57:10.805Z,89.9
2018-03-25T04:58:20.185Z,90.09
2018-03-25T04:59:29.017Z,90
2018-03-25T05:00:37.846Z,89.9
2018-03-25T05:01:46.678Z,89.81
2018-03-25T05:02:55.509Z,90.09
2018-03-25T05:04:04.337Z,90.09
2018-03-25T05:05:13.169Z,89.72
2018-03-25T05:06:21.998Z,89.62
2018-03-25T05:07:30.880Z,89.9
2018-03-25T05:08:39.712Z,89.53
2018-03-25T05:09:48.544Z,89.62
2018-03-25T05:10:57.375Z,89.62
2018-03-25T05:12:06.214Z,89.24
2018-03-25T05:13:15.467Z,89.43
2018-03-25T05:14:24.298Z,89.14
2018-03-25T05:15:33.127Z,89.33
2018-03-25T05:16:41.957Z,88.95
2018-03-25T05:17:50.788Z,89.33
2018-03-25T05:18:59.921Z,88.95
2018-03-25T05:20:08.751Z,88.76
2018-03-25T05:21:17.581Z,89.05
2018-03-25T05:22:26.412Z,88.95
2018-03-25T05:23:35.246Z,88.67
2018-03-25T05:24:44.181Z,88.86
2018-03-25T05:25:53.016Z,88.57
2018-03-25T05:27:01.845Z,88.48
2018-03-25T05:28:11.012Z,88.29
2018-03-25T05:29:19.844Z,88.39
2018-03-25T05:30:28.680Z,88.29
2018-03-25T05:31:37.514Z,88.39
2018-03-25T05:32:46.344Z,88.57
2018-03-25T05:33:55.175Z,88.57
2018-03-25T05:35:04.561Z,88.57
2018-03-25T05:36:13.445Z,87.91
2018-03-25T05:37:22.559Z,88.01
2018-03-25T05:38:31.387Z,88.29
2018-03-25T05:39:40.218Z,88.2
2018-03-25T05:40:49.053Z,87.91
2018-03-25T05:41:58.176Z,87.24
2018-03-25T05:43:07.006Z,87.72
2018-03-25T05:44:15.842Z,87.15
2018-03-25T05:45:24.671Z,88.1
2018-03-25T05:46:33.500Z,87.24
2018-03-25T05:47:42.633Z,87.05
2018-03-25T05:48:51.466Z,87.34
2018-03-25T05:50:00.296Z,87.43
2018-03-25T05:51:09.127Z,87.43
2018-03-25T05:52:17.959Z,87.05
2018-03-25T05:53:26.941Z,86.3
2018-03-25T05:54:35.771Z,86.87
2018-03-25T05:55:44.603Z,86.77
2018-03-25T05:56:53.435Z,86.96
2018-03-25T05:58:02.265Z,86.3
2018-03-25T05:59:11.249Z,86.68
2018-03-25T06:00:20.081Z,86.77
2018-03-25T06:01:28.910Z,86.68
2018-03-25T06:02:37.741Z,86.87
2018-03-25T06:03:46.852Z,86.58
2018-03-25T06:04:55.984Z,86.39
2018-03-25T06:06:04.814Z,86.39
2018-03-25T06:07:13.647Z,86.68
2018-03-25T06:08:22.754Z,86.58
2018-03-25T06:09:31.586Z,86.58
2018-03-25T06:10:40.468Z,86.39
2018-03-25T06:11:49.306Z,86.01
2018-03-25T06:12:58.181Z,86.2
2018-03-25T06:14:07.012Z,85.82
2018-03-25T06:15:15.843Z,85.91
2018-03-25T06:16:24.777Z,85.91
2018-03-25T06:17:33.607Z,85.82
2018-03-25T06:18:42.447Z,86.11
2018-03-25T06:19:51.276Z,86.01
2018-03-25T06:21:00.107Z,86.01
2018-03-25T06:22:09.642Z,86.39
2018-03-25T06:23:18.473Z,86.01
2018-03-25T06:24:27.304Z,86.11
2018-03-25T06:25:36.142Z,85.91
2018-03-25T06:26:44.975Z,86.2
2018-03-25T06:27:53.912Z,86.01
2018-03-25T06:29:02.782Z,85.91
2018-03-25T06:30:11.579Z,85.91
2018-03-25T06:31:20.414Z,86.3
2018-03-25T06:32:29.241Z,85.72
2018-03-25T06:33:38.222Z,85.91
2018-03-25T06:34:47.053Z,85.91
2018-03-25T06:35:55.884Z,86.01
2018-03-25T06:37:04.716Z,86.11
2018-03-25T06:38:13.823Z,85.91
2018-03-25T06:39:22.931Z,85.82
2018-03-25T06:40:31.762Z,85.72
2018-03-25T06:41:40.591Z,85.82
2018-03-25T06:42:49.424Z,86.01
2018-03-25T06:43:58.535Z,86.01
2018-03-25T06:45:07.666Z,86.2
2018-03-25T06:46:16.502Z,85.35
2018-03-25T06:47:25.333Z,86.01
2018-03-25T06:48:34.182Z,86.01
2018-03-25T06:49:43.001Z,85.72
2018-03-25T06:50:52.358Z,85.44
2018-03-25T06:52:01.190Z,85.44
2018-03-25T06:53:10.580Z,85.44
2018-03-25T06:54:19.410Z,85.35
2018-03-25T06:55:28.247Z,86.01
2018-03-25T06:56:37.347Z,85.72
2018-03-25T06:57:46.188Z,85.91
2018-03-25T06:58:55.294Z,86.01
2018-03-25T07:00:04.127Z,85.53
2018-03-25T07:01:13.237Z,85.82
2018-03-25T07:02:22.451Z,85.53
2018-03-25T07:03:31.556Z,86.01
2018-03-25T07:04:40.672Z,85.72
2018-03-25T07:05:49.785Z,85.35
2018-03-25T07:06:58.900Z,85.39
2018-03-25T07:08:07.884Z,85.63
2018-03-25T07:09:16.995Z,85.63
2018-03-25T07:10:25.829Z,85.63
2018-03-25T07:11:34.936Z,85.35
2018-03-25T07:12:43.816Z,85.44
2018-03-25T07:13:52.949Z,86.01
2018-03-25T07:15:01.782Z,85.72
2018-03-25T07:16:10.612Z,85.53
2018-03-25T07:17:19.443Z,85.53
2018-03-25T07:18:28.276Z,85.35
2018-03-25T07:19:37.210Z,85.35
2018-03-25T07:20:46.045Z,86.2
2018-03-25T07:21:54.876Z,85.58
2018-03-25T07:23:03.710Z,85.49
2018-03-25T07:24:12.548Z,85.2
2018-03-25T07:25:21.429Z,85.58
2018-03-25T07:26:30.268Z,85.2
2018-03-25T07:27:39.094Z,85.3
2018-03-25T07:28:47.928Z,85.49
2018-03-25T07:29:57.043Z,85.77
2018-03-25T07:31:05.921Z,85.68
2018-03-25T07:32:14.764Z,85.86
2018-03-25T07:33:23.587Z,85.49
2018-03-25T07:34:32.421Z,85.68
2018-03-25T07:35:41.256Z,85.77
2018-03-25T07:36:50.243Z,85.68
2018-03-25T07:37:59.072Z,85.3
2018-03-25T07:39:07.908Z,85.58
2018-03-25T07:40:16.738Z,85.77
2018-03-25T07:41:25.578Z,85.58
2018-03-25T07:42:34.709Z,85.39
2018-03-25T07:43:44.095Z,85.68
2018-03-25T07:44:52.925Z,85.58
2018-03-25T07:46:01.758Z,85.49
2018-03-25T07:47:10.591Z,85.86
2018-03-25T07:48:19.424Z,85.77
2018-03-25T07:49:28.257Z,85.86
2018-03-25T07:50:37.093Z,85.86
2018-03-25T07:51:46.198Z,85.77
2018-03-25T07:52:55.029Z,85.39
2018-03-25T07:54:03.962Z,85.58
2018-03-25T07:55:12.796Z,85.11
2018-03-25T07:56:21.630Z,85.2
2018-03-25T07:57:30.462Z,85.77
2018-03-25T07:58:39.295Z,85.86
2018-03-25T07:59:48.386Z,85.58
2018-03-25T08:00:57.209Z,85.49
2018-03-25T08:02:06.042Z,85.96
2018-03-25T08:03:14.873Z,85.68
2018-03-25T08:04:23.704Z,85.49
2018-03-25T08:05:32.919Z,86.15
2018-03-25T08:06:42.040Z,85.68
2018-03-25T08:07:51.150Z,85.58
2018-03-25T08:08:59.988Z,85.86
2018-03-25T08:10:08.818Z,85.39
2018-03-25T08:11:17.851Z,86.05
2018-03-25T08:12:26.690Z,85.58
2018-03-25T08:13:35.802Z,85.49
2018-03-25T08:14:44.631Z,85.58
2018-03-25T08:15:53.465Z,85.58
2018-03-25T08:17:02.448Z,85.58
2018-03-25T08:18:11.283Z,85.77
2018-03-25T08:19:20.118Z,85.86
2018-03-25T08:20:28.949Z,86.24
2018-03-25T08:21:37.783Z,85.68
2018-03-25T08:22:46.669Z,85.58
2018-03-25T08:23:55.501Z,86.1
2018-03-25T08:25:04.335Z,85.62
2018-03-25T08:26:13.169Z,85.72
2018-03-25T08:27:22.004Z,85.34
2018-03-25T08:28:30.887Z,86.1
2018-03-25T08:29:39.719Z,85.72
2018-03-25T08:30:48.554Z,85.62
2018-03-25T08:31:57.388Z,85.81
2018-03-25T08:33:06.222Z,85.72
2018-03-25T08:34:15.205Z,85.53
2018-03-25T08:35:24.046Z,86.1
2018-03-25T08:36:32.878Z,85.81
2018-03-25T08:37:41.712Z,85.43
2018-03-25T08:38:50.603Z,85.72
2018-03-25T08:39:59.481Z,86
2018-03-25T08:41:08.592Z,85.81
2018-03-25T08:42:17.426Z,86.29
2018-03-25T08:43:26.537Z,86.47
2018-03-25T08:44:35.373Z,86.38
2018-03-25T08:45:44.509Z,86.29
2018-03-25T08:46:53.343Z,86.57
2018-03-25T08:48:02.490Z,86.76
2018-03-25T08:49:11.329Z,86.76
2018-03-25T08:50:20.441Z,86.57
2018-03-25T08:51:29.273Z,86.95
2018-03-25T08:52:38.109Z,86.76
2018-03-25T08:53:46.941Z,87.05
2018-03-25T08:54:56.059Z,86.86
2018-03-25T08:56:04.892Z,87.34
2018-03-25T08:57:14.057Z,86.47
2018-03-25T08:58:22.892Z,87.14
2018-03-25T08:59:31.726Z,87.38
2018-03-25T09:00:40.562Z,87.38
2018-03-25T09:01:49.398Z,87.47
2018-03-25T09:02:58.236Z,87.57
2018-03-25T09:04:07.346Z,87.95
2018-03-25T09:05:16.183Z,87.38
2018-03-25T09:06:25.016Z,88.13
2018-03-25T09:07:34.127Z,88.23
2018-03-25T09:08:43.265Z,88.23
2018-03-25T09:09:52.099Z,88.71
2018-03-25T09:11:00.938Z,89.09
2018-03-25T09:12:09.772Z,89.37
2018-03-25T09:13:18.606Z,89.94
2018-03-25T09:14:27.592Z,90.04
2018-03-25T09:15:36.425Z,90.42
2018-03-25T09:16:45.260Z,90.7
2018-03-25T09:17:54.098Z,90.7
2018-03-25T09:19:02.931Z,90.89
2018-03-25T09:20:11.766Z,91.94
2018-03-25T09:21:20.600Z,92.03
2018-03-25T09:22:29.435Z,91.75
2018-03-25T09:23:38.276Z,92.13
2018-03-25T09:24:47.111Z,92.84
2018-03-25T09:25:56.373Z,92.18
2018-03-25T09:27:05.205Z,92.61
2018-03-25T09:28:14.038Z,93.04
2018-03-25T09:29:23.151Z,93.13
2018-03-25T09:30:31.987Z,93.41
2018-03-25T09:31:40.974Z,93.79
2018-03-25T09:32:49.809Z,93.6
2018-03-25T09:33:58.934Z,93.41
2018-03-25T09:35:08.035Z,93.79
2018-03-25T09:36:16.871Z,93.89
2018-03-25T09:37:25.706Z,94.65
2018-03-25T09:38:34.541Z,94.65
2018-03-25T09:39:43.376Z,95.03
2018-03-25T09:40:52.210Z,94.65
2018-03-25T09:42:01.048Z,94.27
2018-03-25T09:43:09.988Z,94.18
2018-03-25T09:44:18.822Z,94.84
2018-03-25T09:45:27.659Z,94.84
2018-03-25T09:46:36.496Z,94.37
2018-03-25T09:47:45.330Z,94.74
2018-03-25T09:48:54.215Z,94.74
2018-03-25T09:50:03.054Z,95.03
2018-03-25T09:51:12.165Z,95.03
2018-03-25T09:52:21.000Z,95.12
2018-03-25T09:53:29.835Z,96.31
2018-03-25T09:54:38.819Z,95.08
2018-03-25T09:55:47.655Z,94.89
2018-03-25T09:56:56.771Z,95.08
2018-03-25T09:58:05.606Z,95.84
2018-03-25T09:59:14.443Z,95.65
2018-03-25T10:00:23.378Z,95.75
2018-03-25T10:01:32.213Z,95.65
2018-03-25T10:02:41.050Z,94.79
2018-03-25T10:03:49.941Z,94.89
2018-03-25T10:04:58.723Z,94.6
2018-03-25T10:06:07.613Z,94.13
2018-03-25T10:07:16.446Z,94.13
2018-03-25T10:08:25.562Z,94.22
2018-03-25T10:09:34.679Z,94.89
2018-03-25T10:10:44.108Z,95.17
2018-03-25T10:11:52.996Z,94.79
2018-03-25T10:13:02.112Z,95.17
2018-03-25T10:14:10.958Z,94.89
2018-03-25T10:15:19.791Z,94.79
2018-03-25T10:16:28.633Z,94.32
2018-03-25T10:17:37.565Z,94.7
2018-03-25T10:18:46.678Z,94.27
2018-03-25T10:19:55.516Z,93.94
2018-03-25T10:21:04.359Z,94.17
2018-03-25T10:22:13.195Z,94.08
2018-03-25T10:23:22.315Z,94.08
2018-03-25T10:24:31.154Z,93.79
2018-03-25T10:25:39.991Z,94.17
2018-03-25T10:26:49.391Z,93.51
2018-03-25T10:27:58.226Z,93.6
2018-03-25T10:29:07.166Z,93.32
2018-03-25T10:30:16.002Z,93.51
2018-03-25T10:31:24.842Z,94.08
2018-03-25T10:32:33.682Z,92.84
2018-03-25T10:33:42.522Z,93.41
2018-03-25T10:34:52.037Z,93.79
2018-03-25T10:36:00.878Z,93.98
2018-03-25T10:37:09.991Z,94.08
2018-03-25T10:38:18.825Z,93.89
2018-03-25T10:39:27.663Z,93.79
2018-03-25T10:40:36.509Z,93.46
2018-03-25T10:41:45.343Z,93.55
2018-03-25T10:42:54.180Z,92.69
2018-03-25T10:44:03.017Z,91.94
2018-03-25T10:45:11.854Z,92.13
2018-03-25T10:46:20.843Z,92.41
2018-03-25T10:47:29.679Z,90.41
2018-03-25T10:48:38.517Z,91.46
2018-03-25T10:49:47.358Z,92.13
2018-03-25T10:50:56.198Z,91.94
2018-03-25T10:52:05.321Z,92.6
2018-03-25T10:53:14.154Z,92.89
2018-03-25T10:54:22.990Z,92.03
2018-03-25T10:55:31.830Z,92.13
2018-03-25T10:56:40.665Z,91.84
2018-03-25T10:57:49.659Z,93.32
2018-03-25T10:58:58.776Z,94.08
2018-03-25T11:00:07.614Z,91.03
2018-03-25T11:01:16.451Z,88.74
2018-03-25T11:02:25.292Z,88.07
2018-03-25T11:03:34.230Z,87.69
2018-03-25T11:04:43.092Z,89.4
2018-03-25T11:05:51.922Z,89.6
2018-03-25T11:07:00.745Z,88.74
2018-03-25T11:08:09.580Z,87.98
2018-03-25T11:09:18.748Z,88.74
2018-03-25T11:10:27.586Z,85.88
2018-03-25T11:11:36.424Z,85.78
2018-03-25T11:12:47.869Z,87.79
2018-03-25T11:13:56.705Z,86.02
2018-03-25T11:15:05.696Z,82.78
2018-03-25T11:16:14.532Z,81.35
2018-03-25T11:17:23.372Z,81.02
2018-03-25T11:18:32.208Z,81.68
2018-03-25T11:19:41.048Z,82.45
2018-03-25T11:20:49.985Z,84.3
2018-03-25T11:21:58.829Z,80.96
2018-03-25T11:23:07.661Z,80.3
2018-03-25T11:24:16.500Z,81.54
2018-03-25T11:25:25.340Z,79.44
2018-03-25T11:26:34.480Z,78.96
2018-03-25T11:27:43.319Z,77.38
2018-03-25T11:28:52.159Z,74.9
2018-03-25T11:30:01.000Z,74.04
2018-03-25T11:31:09.840Z,73.18
2018-03-25T11:32:18.780Z,71.84
2018-03-25T11:33:27.628Z,70.89
2018-03-25T11:34:36.466Z,72.61
2018-03-25T11:35:45.306Z,74.13
2018-03-25T11:36:54.145Z,74.99
2018-03-25T11:38:03.323Z,75.03
2018-03-25T11:39:12.163Z,73.12
2018-03-25T11:40:21.002Z,72.45
2018-03-25T11:41:29.839Z,71.12
2018-03-25T11:42:38.680Z,71.41
2018-03-25T11:43:47.570Z,73.41
2018-03-25T11:44:56.407Z,72.93
2018-03-25T11:46:05.524Z,72.55
2018-03-25T11:47:14.369Z,73.12
2018-03-25T11:48:23.204Z,72.36
2018-03-25T11:49:32.342Z,71.15
2018-03-25T11:50:41.184Z,71.41
2018-03-25T11:51:50.025Z,71.72
2018-03-25T11:52:58.865Z,70.67
2018-03-25T11:54:07.989Z,72.87
2018-03-25T11:55:16.829Z,71.82
2018-03-25T11:56:25.669Z,71.44
2018-03-25T11:57:34.507Z,68.57
2018-03-25T11:58:43.349Z,67.91
2018-03-25T11:59:52.190Z,68.48
2018-03-25T12:01:01.082Z,73.07
2018-03-25T12:02:09.920Z,70.77
2018-03-25T12:03:18.762Z,68.48
2018-03-25T12:04:27.603Z,66.19
2018-03-25T12:05:36.442Z,65.71
2018-03-25T12:06:45.433Z,65.52
2018-03-25T12:07:54.275Z,65.52
2018-03-25T12:09:03.111Z,65.9
2018-03-25T12:10:12.224Z,65.61
2018-03-25T12:11:21.066Z,64.47
2018-03-25T12:12:30.057Z,67.24
2018-03-25T12:13:38.898Z,66.09
2018-03-25T12:14:47.738Z,65.61
2018-03-25T12:15:56.582Z,63.89
2018-03-25T12:17:05.421Z,62.84
2018-03-25T12:18:14.312Z,62.27
2018-03-25T12:19:23.151Z,62.46
2018-03-25T12:20:32.001Z,62.46
2018-03-25T12:21:41.113Z,62.46
2018-03-25T12:22:49.952Z,63.42
2018-03-25T12:23:58.942Z,62.65
2018-03-25T12:25:07.783Z,64.37
2018-03-25T12:26:16.623Z,68.29
2018-03-25T12:27:25.463Z,67.71
2018-03-25T12:28:34.306Z,64.18
2018-03-25T12:29:43.247Z,64.37
2018-03-25T12:30:52.086Z,65.23
2018-03-25T12:32:00.928Z,68
2018-03-25T12:33:09.775Z,66.28
2018-03-25T12:34:18.610Z,64.65
2018-03-25T12:35:27.449Z,63.99
2018-03-25T12:36:36.569Z,64.47
2018-03-25T12:37:45.406Z,64.18
2018-03-25T12:38:54.255Z,65.14
2018-03-25T12:40:03.085Z,65.42
2018-03-25T12:41:12.074Z,66.95
2018-03-25T12:42:20.917Z,63.32
2018-03-25T12:43:29.753Z,63.42
2018-03-25T12:44:38.595Z,62.75
2018-03-25T12:45:48.042Z,64.09
2018-03-25T12:46:57.183Z,66.19
2018-03-25T12:48:06.023Z,66.47
2018-03-25T12:49:14.860Z,66.95
2018-03-25T12:50:23.699Z,66
2018-03-25T12:51:32.820Z,67.33
2018-03-25T12:52:41.816Z,66.56
2018-03-25T12:53:50.651Z,65.33
2018-03-25T12:54:59.775Z,66
2018-03-25T12:56:08.615Z,65.23
2018-03-25T12:57:17.454Z,63.8
2018-03-25T12:58:26.344Z,63.42
2018-03-25T12:59:35.183Z,64.09
2018-03-25T13:00:44.023Z,63.6
2018-03-25T13:01:52.863Z,64.05
2018-03-25T13:03:01.703Z,64.25
2018-03-25T13:04:10.644Z,64.05
2018-03-25T13:05:19.487Z,63.96
2018-03-25T13:06:28.599Z,65.39
2018-03-25T13:07:37.441Z,64.91
2018-03-25T13:08:46.276Z,64.72
2018-03-25T13:09:55.415Z,64.53
2018-03-25T13:11:04.256Z,63.57
2018-03-25T13:12:13.373Z,64.43
2018-03-25T13:13:22.491Z,65.87
2018-03-25T13:14:31.329Z,67.01
2018-03-25T13:15:40.319Z,65.87
2018-03-25T13:16:49.156Z,65.48
2018-03-25T13:17:57.996Z,66.15
2018-03-25T13:19:06.836Z,67.4
2018-03-25T13:20:15.673Z,66.25
2018-03-25T13:21:24.763Z,65.2
2018-03-25T13:22:33.608Z,64.62
2018-03-25T13:23:42.443Z,64.62
2018-03-25T13:24:51.556Z,65.01
2018-03-25T13:26:00.398Z,66.15
2018-03-25T13:27:09.564Z,65.1
2018-03-25T13:28:18.402Z,64.81
2018-03-25T13:29:27.241Z,65.3
2018-03-25T13:30:36.078Z,64.25
2018-03-25T13:31:45.199Z,65.87
2018-03-25T13:32:54.139Z,66.35
2018-03-25T13:34:02.982Z,66.53
2018-03-25T13:35:12.094Z,65.71
2018-03-25T13:36:20.934Z,65.04
2018-03-25T13:37:29.775Z,63.89
2018-03-25T13:38:38.612Z,63.7
2018-03-25T13:39:47.458Z,63.6
2018-03-25T13:40:56.572Z,63.6
2018-03-25T13:42:05.684Z,65.61
2018-03-25T13:43:14.532Z,64.56
2018-03-25T13:44:23.460Z,65.61
2018-03-25T13:45:32.298Z,65.61
2018-03-25T13:46:41.137Z,65.71
2018-03-25T13:47:49.977Z,65.61
2018-03-25T13:48:58.813Z,66
2018-03-25T13:50:07.931Z,64.94
2018-03-25T13:51:16.771Z,65.14
2018-03-25T13:52:25.615Z,64.47
2018-03-25T13:53:34.730Z,64.75
2018-03-25T13:54:43.571Z,65.33
2018-03-25T13:55:52.414Z,65.23
2018-03-25T13:57:01.250Z,65.9
2018-03-25T13:58:10.366Z,66.28
2018-03-25T13:59:19.203Z,66.09
2018-03-25T14:00:28.040Z,66.09
2018-03-25T14:01:36.978Z,65.48
2018-03-25T14:02:45.818Z,66.09
2018-03-25T14:03:54.657Z,67.24
2018-03-25T14:05:03.495Z,67.4
2018-03-25T14:06:12.333Z,68
2018-03-25T14:07:21.604Z,67.05
2018-03-25T14:08:30.719Z,66.56
2018-03-25T14:09:39.836Z,66.19
2018-03-25T14:10:48.676Z,66.09
2018-03-25T14:11:57.513Z,66.82
2018-03-25T14:13:06.418Z,67.14
2018-03-25T14:14:15.247Z,67.33
2018-03-25T14:15:24.081Z,67.43
2018-03-25T14:16:32.918Z,66.95
2018-03-25T14:17:41.757Z,67.05
2018-03-25T14:18:50.591Z,66.56
2018-03-25T14:19:59.429Z,67.33
2018-03-25T14:21:08.269Z,67.24
2018-03-25T14:22:17.107Z,66.76
2018-03-25T14:23:25.947Z,68.29
2018-03-25T14:24:35.125Z,66.82
2018-03-25T14:25:44.229Z,68
2018-03-25T14:26:53.065Z,68.29
2018-03-25T14:28:01.903Z,68.1
2018-03-25T14:29:10.741Z,69.53
2018-03-25T14:30:19.630Z,68.29
2018-03-25T14:31:28.466Z,68.86
2018-03-25T14:32:37.304Z,68.96
2018-03-25T14:33:46.142Z,69.43
2018-03-25T14:34:54.978Z,69.62
2018-03-25T14:36:04.101Z,69.43
2018-03-25T14:37:13.217Z,68.76
2018-03-25T14:38:22.055Z,69.24
2018-03-25T14:39:30.897Z,69.72
2018-03-25T14:40:39.738Z,68.19
2018-03-25T14:41:48.727Z,69.53
2018-03-25T14:42:57.568Z,69.62
2018-03-25T14:44:06.408Z,70.26
2018-03-25T14:45:15.520Z,68
2018-03-25T14:46:24.357Z,68.92
2018-03-25T14:47:33.260Z,69.02
2018-03-25T14:48:42.084Z,69.62
2018-03-25T14:49:50.923Z,69.97
2018-03-25T14:50:59.762Z,70.01
2018-03-25T14:52:08.600Z,68.86